sensor_id;sensor_type;location;lat;lon;timestamp;temperature;humidity
19258;DHT22;9763;48.780;9.212;2022-07-29T00:00:16;25.20;52.40
19258;DHT22;9763;48.780;9.212;2022-07-29T00:03:39;25.20;52.30
19258;DHT22;9763;48.780;9.212;2022-07-29T00:07:04;25.20;52.30
19258;DHT22;9763;48.780;9.212;2022-07-29T00:10:28;25.20;52.50
19258;DHT22;9763;48.780;9.212;2022-07-29T00:13:52;25.20;52.40
19258;DHT22;9763;48.780;9.212;2022-07-29T00:17:15;25.20;52.50
19258;DHT22;9763;48.780;9.212;2022-07-29T00:20:40;25.30;52.50
19258;DHT22;9763;48.780;9.212;2022-07-29T00:24:05;25.30;52.60
19258;DHT22;9763;48.780;9.212;2022-07-29T00:27:29;25.20;52.60
19258;DHT22;9763;48.780;9.212;2022-07-29T00:30:52;25.20;52.50
19258;DHT22;9763;48.780;9.212;2022-07-29T00:34:16;25.20;52.50
19258;DHT22;9763;48.780;9.212;2022-07-29T00:37:57;25.20;52.40
19258;DHT22;9763;48.780;9.212;2022-07-29T00:41:24;25.20;52.60
19258;DHT22;9763;48.780;9.212;2022-07-29T00:44:48;25.10;52.60
19258;DHT22;9763;48.780;9.212;2022-07-29T00:48:11;25.10;52.60
19258;DHT22;9763;48.780;9.212;2022-07-29T00:51:35;25.10;52.70
19258;DHT22;9763;48.780;9.212;2022-07-29T00:55:00;25.00;52.80
19258;DHT22;9763;48.780;9.212;2022-07-29T00:58:31;25.00;52.80
19258;DHT22;9763;48.780;9.212;2022-07-29T01:01:55;24.90;53.00
19258;DHT22;9763;48.780;9.212;2022-07-29T01:05:21;24.80;53.00
19258;DHT22;9763;48.780;9.212;2022-07-29T01:09:06;24.80;53.20
19258;DHT22;9763;48.780;9.212;2022-07-29T01:12:34;24.80;53.30
19258;DHT22;9763;48.780;9.212;2022-07-29T01:16:06;24.80;53.40
19258;DHT22;9763;48.780;9.212;2022-07-29T01:19:47;24.80;53.60
19258;DHT22;9763;48.780;9.212;2022-07-29T01:23:47;24.80;53.80
19258;DHT22;9763;48.780;9.212;2022-07-29T01:27:38;24.80;53.90
19258;DHT22;9763;48.780;9.212;2022-07-29T01:31:14;24.80;54.20
19258;DHT22;9763;48.780;9.212;2022-07-29T01:34:50;24.70;53.50
19258;DHT22;9763;48.780;9.212;2022-07-29T01:38:21;24.70;53.60
19258;DHT22;9763;48.780;9.212;2022-07-29T01:41:50;24.70;53.60
19258;DHT22;9763;48.780;9.212;2022-07-29T01:45:23;24.70;53.50
19258;DHT22;9763;48.780;9.212;2022-07-29T01:48:55;24.60;53.40
19258;DHT22;9763;48.780;9.212;2022-07-29T01:52:27;24.60;53.40
19258;DHT22;9763;48.780;9.212;2022-07-29T01:55:57;24.50;53.40
19258;DHT22;9763;48.780;9.212;2022-07-29T01:59:25;24.50;53.30
19258;DHT22;9763;48.780;9.212;2022-07-29T02:02:50;24.40;53.00
19258;DHT22;9763;48.780;9.212;2022-07-29T02:06:19;24.50;53.50
19258;DHT22;9763;48.780;9.212;2022-07-29T02:09:46;24.40;53.50
19258;DHT22;9763;48.780;9.212;2022-07-29T02:13:13;24.40;53.40
19258;DHT22;9763;48.780;9.212;2022-07-29T02:16:40;24.30;53.40
19258;DHT22;9763;48.780;9.212;2022-07-29T02:20:07;24.30;53.50
19258;DHT22;9763;48.780;9.212;2022-07-29T02:23:35;24.30;53.50
19258;DHT22;9763;48.780;9.212;2022-07-29T02:27:14;24.30;53.60
19258;DHT22;9763;48.780;9.212;2022-07-29T02:30:40;24.20;53.40
19258;DHT22;9763;48.780;9.212;2022-07-29T02:34:08;24.20;53.50
19258;DHT22;9763;48.780;9.212;2022-07-29T02:37:35;24.10;53.50
19258;DHT22;9763;48.780;9.212;2022-07-29T02:41:04;24.10;53.50
19258;DHT22;9763;48.780;9.212;2022-07-29T02:44:34;24.00;53.70
19258;DHT22;9763;48.780;9.212;2022-07-29T02:47:59;24.00;53.90
19258;DHT22;9763;48.780;9.212;2022-07-29T02:51:36;23.90;54.00
19258;DHT22;9763;48.780;9.212;2022-07-29T02:55:10;23.90;54.20
19258;DHT22;9763;48.780;9.212;2022-07-29T02:58:42;23.90;54.30
19258;DHT22;9763;48.780;9.212;2022-07-29T03:02:10;23.90;54.30
19258;DHT22;9763;48.780;9.212;2022-07-29T03:05:37;23.90;54.20
19258;DHT22;9763;48.780;9.212;2022-07-29T03:09:04;23.90;54.20
19258;DHT22;9763;48.780;9.212;2022-07-29T03:12:35;23.90;54.30
19258;DHT22;9763;48.780;9.212;2022-07-29T03:16:01;23.90;54.30
19258;DHT22;9763;48.780;9.212;2022-07-29T03:19:26;23.90;55.30
19258;DHT22;9763;48.780;9.212;2022-07-29T03:22:50;23.90;54.60
19258;DHT22;9763;48.780;9.212;2022-07-29T03:26:14;23.80;54.60
19258;DHT22;9763;48.780;9.212;2022-07-29T03:29:37;23.80;54.70
19258;DHT22;9763;48.780;9.212;2022-07-29T03:33:06;23.70;54.90
19258;DHT22;9763;48.780;9.212;2022-07-29T03:36:34;23.70;55.00
19258;DHT22;9763;48.780;9.212;2022-07-29T03:39:58;23.70;55.00
19258;DHT22;9763;48.780;9.212;2022-07-29T03:43:26;23.60;55.00
19258;DHT22;9763;48.780;9.212;2022-07-29T03:46:55;23.60;55.10
19258;DHT22;9763;48.780;9.212;2022-07-29T03:50:23;23.60;55.40
19258;DHT22;9763;48.780;9.212;2022-07-29T03:53:47;23.70;55.60
19258;DHT22;9763;48.780;9.212;2022-07-29T03:57:12;23.50;55.40
19258;DHT22;9763;48.780;9.212;2022-07-29T04:00:38;23.50;55.60
19258;DHT22;9763;48.780;9.212;2022-07-29T04:04:02;23.50;55.60
19258;DHT22;9763;48.780;9.212;2022-07-29T04:07:28;23.50;55.70
19258;DHT22;9763;48.780;9.212;2022-07-29T04:10:51;23.40;56.20
19258;DHT22;9763;48.780;9.212;2022-07-29T04:14:15;23.50;55.80
19258;DHT22;9763;48.780;9.212;2022-07-29T04:17:39;23.50;55.70
19258;DHT22;9763;48.780;9.212;2022-07-29T04:21:03;23.50;55.70
19258;DHT22;9763;48.780;9.212;2022-07-29T04:24:27;23.50;55.80
19258;DHT22;9763;48.780;9.212;2022-07-29T04:31:24;23.70;55.30
19258;DHT22;9763;48.780;9.212;2022-07-29T04:34:48;23.80;56.00
19258;DHT22;9763;48.780;9.212;2022-07-29T04:38:11;23.90;56.30
19258;DHT22;9763;48.780;9.212;2022-07-29T04:41:39;24.00;56.40
19258;DHT22;9763;48.780;9.212;2022-07-29T04:45:05;24.20;56.60
19258;DHT22;9763;48.780;9.212;2022-07-29T04:48:29;24.30;56.40
19258;DHT22;9763;48.780;9.212;2022-07-29T04:51:53;24.50;56.70
19258;DHT22;9763;48.780;9.212;2022-07-29T04:55:16;24.70;57.20
19258;DHT22;9763;48.780;9.212;2022-07-29T04:58:41;25.10;57.60
19258;DHT22;9763;48.780;9.212;2022-07-29T05:02:05;25.50;57.60
19258;DHT22;9763;48.780;9.212;2022-07-29T05:05:29;25.80;57.40
19258;DHT22;9763;48.780;9.212;2022-07-29T05:08:53;26.30;57.40
19258;DHT22;9763;48.780;9.212;2022-07-29T05:12:16;26.70;57.00
19258;DHT22;9763;48.780;9.212;2022-07-29T05:15:41;27.10;56.50
19258;DHT22;9763;48.780;9.212;2022-07-29T05:19:05;27.50;56.50
19258;DHT22;9763;48.780;9.212;2022-07-29T05:22:35;27.90;56.50
19258;DHT22;9763;48.780;9.212;2022-07-29T05:25:58;28.30;56.20
19258;DHT22;9763;48.780;9.212;2022-07-29T05:29:22;28.70;55.70
19258;DHT22;9763;48.780;9.212;2022-07-29T05:33:05;29.10;54.60
19258;DHT22;9763;48.780;9.212;2022-07-29T05:36:49;29.20;53.80
19258;DHT22;9763;48.780;9.212;2022-07-29T05:40:13;29.40;53.50
19258;DHT22;9763;48.780;9.212;2022-07-29T05:43:36;29.50;53.60
19258;DHT22;9763;48.780;9.212;2022-07-29T05:47:00;29.70;53.90
19258;DHT22;9763;48.780;9.212;2022-07-29T05:50:25;30.00;53.80
19258;DHT22;9763;48.780;9.212;2022-07-29T05:53:48;30.30;53.50
19258;DHT22;9763;48.780;9.212;2022-07-29T05:57:15;30.60;53.20
19258;DHT22;9763;48.780;9.212;2022-07-29T06:00:39;30.90;52.40
19258;DHT22;9763;48.780;9.212;2022-07-29T06:04:03;31.20;52.10
19258;DHT22;9763;48.780;9.212;2022-07-29T06:07:29;31.50;51.90
19258;DHT22;9763;48.780;9.212;2022-07-29T06:10:54;31.70;51.80
19258;DHT22;9763;48.780;9.212;2022-07-29T06:14:18;32.10;51.80
19258;DHT22;9763;48.780;9.212;2022-07-29T06:17:42;32.40;51.60
19258;DHT22;9763;48.780;9.212;2022-07-29T06:21:22;32.80;51.10
19258;DHT22;9763;48.780;9.212;2022-07-29T06:24:47;33.20;50.30
19258;DHT22;9763;48.780;9.212;2022-07-29T06:28:11;33.60;50.20
19258;DHT22;9763;48.780;9.212;2022-07-29T06:31:35;33.90;50.00
19258;DHT22;9763;48.780;9.212;2022-07-29T06:34:59;34.30;49.00
19258;DHT22;9763;48.780;9.212;2022-07-29T06:38:42;34.70;48.60
19258;DHT22;9763;48.780;9.212;2022-07-29T06:42:13;35.10;48.50
19258;DHT22;9763;48.780;9.212;2022-07-29T06:45:37;35.50;48.10
19258;DHT22;9763;48.780;9.212;2022-07-29T06:49:03;35.90;47.60
19258;DHT22;9763;48.780;9.212;2022-07-29T06:52:27;36.30;46.80
19258;DHT22;9763;48.780;9.212;2022-07-29T06:55:51;36.70;46.30
19258;DHT22;9763;48.780;9.212;2022-07-29T06:59:16;36.90;43.70
19258;DHT22;9763;48.780;9.212;2022-07-29T07:02:39;36.80;42.80
19258;DHT22;9763;48.780;9.212;2022-07-29T07:06:03;36.70;42.30
19258;DHT22;9763;48.780;9.212;2022-07-29T07:09:27;36.60;42.40
19258;DHT22;9763;48.780;9.212;2022-07-29T07:13:01;36.40;42.20
19258;DHT22;9763;48.780;9.212;2022-07-29T07:16:26;36.40;42.50
19258;DHT22;9763;48.780;9.212;2022-07-29T07:19:50;36.40;42.70
19258;DHT22;9763;48.780;9.212;2022-07-29T07:23:13;36.50;42.40
19258;DHT22;9763;48.780;9.212;2022-07-29T07:26:37;36.80;41.00
19258;DHT22;9763;48.780;9.212;2022-07-29T07:30:02;36.80;41.70
19258;DHT22;9763;48.780;9.212;2022-07-29T07:33:28;36.90;41.60
19258;DHT22;9763;48.780;9.212;2022-07-29T07:36:52;37.00;39.70
19258;DHT22;9763;48.780;9.212;2022-07-29T07:40:15;36.80;39.40
19258;DHT22;9763;48.780;9.212;2022-07-29T07:43:40;36.50;39.70
19258;DHT22;9763;48.780;9.212;2022-07-29T07:47:04;36.40;40.20
19258;DHT22;9763;48.780;9.212;2022-07-29T07:50:35;36.30;40.10
19258;DHT22;9763;48.780;9.212;2022-07-29T07:53:59;36.30;40.60
19258;DHT22;9763;48.780;9.212;2022-07-29T07:57:23;36.50;41.00
19258;DHT22;9763;48.780;9.212;2022-07-29T08:00:47;36.70;41.80
19258;DHT22;9763;48.780;9.212;2022-07-29T08:04:11;37.00;40.80
19258;DHT22;9763;48.780;9.212;2022-07-29T08:07:37;37.20;40.40
19258;DHT22;9763;48.780;9.212;2022-07-29T08:11:00;37.40;40.10
19258;DHT22;9763;48.780;9.212;2022-07-29T08:14:31;37.60;40.30
19258;DHT22;9763;48.780;9.212;2022-07-29T08:17:56;37.90;40.60
19258;DHT22;9763;48.780;9.212;2022-07-29T08:21:19;38.20;40.70
19258;DHT22;9763;48.780;9.212;2022-07-29T08:24:44;38.70;40.30
19258;DHT22;9763;48.780;9.212;2022-07-29T08:28:15;39.10;39.60
19258;DHT22;9763;48.780;9.212;2022-07-29T08:31:39;39.40;39.10
19258;DHT22;9763;48.780;9.212;2022-07-29T08:35:04;39.70;38.30
19258;DHT22;9763;48.780;9.212;2022-07-29T08:38:28;39.80;37.50
19258;DHT22;9763;48.780;9.212;2022-07-29T08:41:53;39.90;37.50
19258;DHT22;9763;48.780;9.212;2022-07-29T08:45:18;40.00;37.10
19258;DHT22;9763;48.780;9.212;2022-07-29T08:48:46;40.00;36.60
19258;DHT22;9763;48.780;9.212;2022-07-29T08:52:11;40.00;36.20
19258;DHT22;9763;48.780;9.212;2022-07-29T08:55:39;39.90;35.60
19258;DHT22;9763;48.780;9.212;2022-07-29T08:59:05;39.90;35.80
19258;DHT22;9763;48.780;9.212;2022-07-29T09:02:39;39.90;35.90
19258;DHT22;9763;48.780;9.212;2022-07-29T09:06:07;40.00;36.00
19258;DHT22;9763;48.780;9.212;2022-07-29T09:09:33;40.20;35.90
19258;DHT22;9763;48.780;9.212;2022-07-29T09:12:57;40.40;35.70
19258;DHT22;9763;48.780;9.212;2022-07-29T09:16:22;40.70;35.60
19258;DHT22;9763;48.780;9.212;2022-07-29T09:20:09;40.90;34.40
19258;DHT22;9763;48.780;9.212;2022-07-29T09:23:33;41.10;33.80
19258;DHT22;9763;48.780;9.212;2022-07-29T09:26:58;41.10;33.70
19258;DHT22;9763;48.780;9.212;2022-07-29T09:30:21;41.20;33.40
19258;DHT22;9763;48.780;9.212;2022-07-29T09:33:57;41.20;33.00
19258;DHT22;9763;48.780;9.212;2022-07-29T09:37:28;41.30;32.50
19258;DHT22;9763;48.780;9.212;2022-07-29T09:41:03;41.40;32.30
19258;DHT22;9763;48.780;9.212;2022-07-29T09:44:41;41.50;32.30
19258;DHT22;9763;48.780;9.212;2022-07-29T09:48:14;41.50;31.80
19258;DHT22;9763;48.780;9.212;2022-07-29T09:51:40;41.60;31.70
19258;DHT22;9763;48.780;9.212;2022-07-29T09:55:05;41.60;31.80
19258;DHT22;9763;48.780;9.212;2022-07-29T09:58:29;41.60;31.80
19258;DHT22;9763;48.780;9.212;2022-07-29T10:01:55;41.70;31.80
19258;DHT22;9763;48.780;9.212;2022-07-29T10:05:22;41.90;31.50
19258;DHT22;9763;48.780;9.212;2022-07-29T10:08:48;42.00;30.80
19258;DHT22;9763;48.780;9.212;2022-07-29T10:12:12;41.90;30.00
19258;DHT22;9763;48.780;9.212;2022-07-29T10:15:37;41.60;29.60
19258;DHT22;9763;48.780;9.212;2022-07-29T10:19:05;41.20;29.30
19258;DHT22;9763;48.780;9.212;2022-07-29T10:22:29;40.60;29.30
19258;DHT22;9763;48.780;9.212;2022-07-29T10:26:15;40.10;29.40
19258;DHT22;9763;48.780;9.212;2022-07-29T10:29:40;39.60;29.70
19258;DHT22;9763;48.780;9.212;2022-07-29T10:33:29;39.10;29.90
19258;DHT22;9763;48.780;9.212;2022-07-29T10:37:09;38.70;29.90
19258;DHT22;9763;48.780;9.212;2022-07-29T10:40:50;38.30;29.80
19258;DHT22;9763;48.780;9.212;2022-07-29T10:44:42;37.70;30.00
19258;DHT22;9763;48.780;9.212;2022-07-29T10:48:08;37.10;30.70
19258;DHT22;9763;48.780;9.212;2022-07-29T10:51:56;36.60;31.30
19258;DHT22;9763;48.780;9.212;2022-07-29T10:55:34;36.00;33.60
19258;DHT22;9763;48.780;9.212;2022-07-29T10:59:22;35.40;34.00
19258;DHT22;9763;48.780;9.212;2022-07-29T11:02:54;34.60;35.60
19258;DHT22;9763;48.780;9.212;2022-07-29T11:06:20;33.90;37.60
19258;DHT22;9763;48.780;9.212;2022-07-29T11:10:23;33.10;39.40
19258;DHT22;9763;48.780;9.212;2022-07-29T11:13:52;32.00;42.20
19258;DHT22;9763;48.780;9.212;2022-07-29T11:17:18;31.10;43.60
19258;DHT22;9763;48.780;9.212;2022-07-29T11:20:44;29.90;45.70
19258;DHT22;9763;48.780;9.212;2022-07-29T11:24:14;28.70;50.00
19258;DHT22;9763;48.780;9.212;2022-07-29T11:27:51;27.70;54.10
19258;DHT22;9763;48.780;9.212;2022-07-29T11:31:30;26.90;57.30
19258;DHT22;9763;48.780;9.212;2022-07-29T11:35:14;26.30;59.80
19258;DHT22;9763;48.780;9.212;2022-07-29T11:39:27;25.60;60.80
19258;DHT22;9763;48.780;9.212;2022-07-29T11:42:58;25.00;62.10
19258;DHT22;9763;48.780;9.212;2022-07-29T11:46:44;24.30;64.20
19258;DHT22;9763;48.780;9.212;2022-07-29T11:50:12;23.80;65.50
19258;DHT22;9763;48.780;9.212;2022-07-29T11:53:39;23.40;68.40
19258;DHT22;9763;48.780;9.212;2022-07-29T11:57:06;23.50;70.30
19258;DHT22;9763;48.780;9.212;2022-07-29T12:00:33;23.50;72.40
19258;DHT22;9763;48.780;9.212;2022-07-29T12:04:03;23.60;73.20
19258;DHT22;9763;48.780;9.212;2022-07-29T12:07:29;23.70;73.70
19258;DHT22;9763;48.780;9.212;2022-07-29T12:10:56;23.70;74.70
19258;DHT22;9763;48.780;9.212;2022-07-29T12:14:28;23.90;74.40
19258;DHT22;9763;48.780;9.212;2022-07-29T12:17:53;23.90;74.90
19258;DHT22;9763;48.780;9.212;2022-07-29T12:21:16;24.00;75.80
19258;DHT22;9763;48.780;9.212;2022-07-29T12:24:46;24.20;76.70
19258;DHT22;9763;48.780;9.212;2022-07-29T12:28:11;24.40;76.70
19258;DHT22;9763;48.780;9.212;2022-07-29T12:31:53;24.50;76.80
19258;DHT22;9763;48.780;9.212;2022-07-29T12:35:19;24.80;78.90
19258;DHT22;9763;48.780;9.212;2022-07-29T12:38:44;25.00;78.50
19258;DHT22;9763;48.780;9.212;2022-07-29T12:42:12;25.00;79.50
19258;DHT22;9763;48.780;9.212;2022-07-29T12:45:41;25.30;78.40
19258;DHT22;9763;48.780;9.212;2022-07-29T12:49:09;25.40;77.30
19258;DHT22;9763;48.780;9.212;2022-07-29T12:52:35;25.50;76.90
19258;DHT22;9763;48.780;9.212;2022-07-29T12:55:59;25.50;77.60
19258;DHT22;9763;48.780;9.212;2022-07-29T12:59:32;25.50;77.60
19258;DHT22;9763;48.780;9.212;2022-07-29T13:03:00;25.50;74.50
19258;DHT22;9763;48.780;9.212;2022-07-29T13:06:32;25.50;76.50
19258;DHT22;9763;48.780;9.212;2022-07-29T13:10:11;25.50;76.20
19258;DHT22;9763;48.780;9.212;2022-07-29T13:13:50;25.40;76.10
19258;DHT22;9763;48.780;9.212;2022-07-29T13:17:28;25.40;75.10
19258;DHT22;9763;48.780;9.212;2022-07-29T13:21:13;25.30;75.90
19258;DHT22;9763;48.780;9.212;2022-07-29T13:24:51;25.20;75.90
19258;DHT22;9763;48.780;9.212;2022-07-29T13:28:17;25.10;75.90
19258;DHT22;9763;48.780;9.212;2022-07-29T13:35:08;24.90;75.90
19258;DHT22;9763;48.780;9.212;2022-07-29T13:41:58;24.70;75.90
19258;DHT22;9763;48.780;9.212;2022-07-29T13:52:14;24.30;77.30
19258;DHT22;9763;48.780;9.212;2022-07-29T13:55:38;24.30;79.20
19258;DHT22;9763;48.780;9.212;2022-07-29T13:59:04;24.40;80.40
19258;DHT22;9763;48.780;9.212;2022-07-29T14:02:27;24.50;80.60
19258;DHT22;9763;48.780;9.212;2022-07-29T14:05:51;24.50;83.90
19258;DHT22;9763;48.780;9.212;2022-07-29T14:09:15;24.90;86.60
19258;DHT22;9763;48.780;9.212;2022-07-29T14:12:38;25.10;87.00
19258;DHT22;9763;48.780;9.212;2022-07-29T14:16:05;25.30;87.50
19258;DHT22;9763;48.780;9.212;2022-07-29T14:22:54;25.80;87.70
19258;DHT22;9763;48.780;9.212;2022-07-29T14:26:17;25.90;87.20
19258;DHT22;9763;48.780;9.212;2022-07-29T14:29:45;26.10;86.40
19258;DHT22;9763;48.780;9.212;2022-07-29T14:33:10;26.20;85.10
19258;DHT22;9763;48.780;9.212;2022-07-29T14:36:33;26.30;86.30
19258;DHT22;9763;48.780;9.212;2022-07-29T14:39:57;26.30;87.00
19258;DHT22;9763;48.780;9.212;2022-07-29T14:46:47;26.60;83.80
19258;DHT22;9763;48.780;9.212;2022-07-29T14:50:12;26.70;84.00
19258;DHT22;9763;48.780;9.212;2022-07-29T14:53:36;26.70;85.00
19258;DHT22;9763;48.780;9.212;2022-07-29T14:57:00;26.70;83.20
19258;DHT22;9763;48.780;9.212;2022-07-29T15:03:48;26.80;83.80
19258;DHT22;9763;48.780;9.212;2022-07-29T15:07:13;26.80;84.60
19258;DHT22;9763;48.780;9.212;2022-07-29T15:10:37;26.90;84.70
19258;DHT22;9763;48.780;9.212;2022-07-29T15:14:01;27.00;84.20
19258;DHT22;9763;48.780;9.212;2022-07-29T15:24:14;27.10;82.80
19258;DHT22;9763;48.780;9.212;2022-07-29T15:27:38;27.10;83.00
19258;DHT22;9763;48.780;9.212;2022-07-29T15:31:09;27.20;83.20
19258;DHT22;9763;48.780;9.212;2022-07-29T15:34:33;27.10;83.90
19258;DHT22;9763;48.780;9.212;2022-07-29T15:37:56;27.20;83.80
19258;DHT22;9763;48.780;9.212;2022-07-29T15:41:22;27.20;83.50
19258;DHT22;9763;48.780;9.212;2022-07-29T15:44:45;27.20;82.80
19258;DHT22;9763;48.780;9.212;2022-07-29T15:48:09;27.20;83.30
19258;DHT22;9763;48.780;9.212;2022-07-29T15:51:39;27.10;82.10
19258;DHT22;9763;48.780;9.212;2022-07-29T15:55:03;27.10;82.40
19258;DHT22;9763;48.780;9.212;2022-07-29T15:58:29;27.20;82.30
19258;DHT22;9763;48.780;9.212;2022-07-29T16:01:52;27.10;82.60
19258;DHT22;9763;48.780;9.212;2022-07-29T16:05:16;27.20;81.90
19258;DHT22;9763;48.780;9.212;2022-07-29T16:15:37;27.20;81.30
19258;DHT22;9763;48.780;9.212;2022-07-29T16:22:25;27.30;81.00
19258;DHT22;9763;48.780;9.212;2022-07-29T16:25:50;27.30;80.70
19258;DHT22;9763;48.780;9.212;2022-07-29T16:29:22;27.40;80.40
19258;DHT22;9763;48.780;9.212;2022-07-29T16:32:47;27.40;80.10
19258;DHT22;9763;48.780;9.212;2022-07-29T16:36:10;27.40;80.70
19258;DHT22;9763;48.780;9.212;2022-07-29T16:39:39;27.40;80.60
19258;DHT22;9763;48.780;9.212;2022-07-29T16:43:03;27.50;79.00
19258;DHT22;9763;48.780;9.212;2022-07-29T16:46:27;27.50;78.50
19258;DHT22;9763;48.780;9.212;2022-07-29T16:49:52;27.50;79.20
19258;DHT22;9763;48.780;9.212;2022-07-29T16:53:16;27.40;78.00
19258;DHT22;9763;48.780;9.212;2022-07-29T17:03:29;27.30;77.10
19258;DHT22;9763;48.780;9.212;2022-07-29T17:06:54;27.30;78.00
19258;DHT22;9763;48.780;9.212;2022-07-29T17:10:21;27.80;78.10
19258;DHT22;9763;48.780;9.212;2022-07-29T17:13:49;27.20;76.40
19258;DHT22;9763;48.780;9.212;2022-07-29T17:17:12;27.20;77.50
19258;DHT22;9763;48.780;9.212;2022-07-29T17:20:37;27.20;77.30
19258;DHT22;9763;48.780;9.212;2022-07-29T17:24:03;27.20;77.40
19258;DHT22;9763;48.780;9.212;2022-07-29T17:27:27;27.10;76.30
19258;DHT22;9763;48.780;9.212;2022-07-29T17:30:50;27.10;76.50
19258;DHT22;9763;48.780;9.212;2022-07-29T17:34:14;27.00;76.70
19258;DHT22;9763;48.780;9.212;2022-07-29T17:37:37;27.00;77.60
19258;DHT22;9763;48.780;9.212;2022-07-29T17:41:03;27.00;77.30
19258;DHT22;9763;48.780;9.212;2022-07-29T17:44:30;27.00;77.30
19258;DHT22;9763;48.780;9.212;2022-07-29T17:51:21;27.10;77.00
19258;DHT22;9763;48.780;9.212;2022-07-29T17:54:46;27.10;76.70
19258;DHT22;9763;48.780;9.212;2022-07-29T17:58:11;27.10;76.50
19258;DHT22;9763;48.780;9.212;2022-07-29T18:01:35;27.10;76.40
19258;DHT22;9763;48.780;9.212;2022-07-29T18:04:59;27.10;76.20
19258;DHT22;9763;48.780;9.212;2022-07-29T18:08:23;27.00;75.80
19258;DHT22;9763;48.780;9.212;2022-07-29T18:11:46;27.00;75.90
19258;DHT22;9763;48.780;9.212;2022-07-29T18:15:11;27.00;76.10
19258;DHT22;9763;48.780;9.212;2022-07-29T18:18:36;27.00;75.80
19258;DHT22;9763;48.780;9.212;2022-07-29T18:21:59;27.00;75.80
19258;DHT22;9763;48.780;9.212;2022-07-29T18:25:26;27.00;76.60
19258;DHT22;9763;48.780;9.212;2022-07-29T18:28:51;26.90;76.20
19258;DHT22;9763;48.780;9.212;2022-07-29T18:32:16;26.90;76.00
19258;DHT22;9763;48.780;9.212;2022-07-29T18:35:51;26.90;75.90
19258;DHT22;9763;48.780;9.212;2022-07-29T18:39:32;26.70;75.00
19258;DHT22;9763;48.780;9.212;2022-07-29T18:42:56;26.70;74.80
19258;DHT22;9763;48.780;9.212;2022-07-29T18:46:19;26.60;74.60
19258;DHT22;9763;48.780;9.212;2022-07-29T18:49:45;26.50;74.40
19258;DHT22;9763;48.780;9.212;2022-07-29T18:56:32;26.40;74.00
19258;DHT22;9763;48.780;9.212;2022-07-29T19:06:45;26.10;72.90
19258;DHT22;9763;48.780;9.212;2022-07-29T19:10:09;26.00;72.80
19258;DHT22;9763;48.780;9.212;2022-07-29T19:13:33;25.90;72.70
19258;DHT22;9763;48.780;9.212;2022-07-29T19:27:28;25.50;71.90
19258;DHT22;9763;48.780;9.212;2022-07-29T19:41:06;25.10;72.10
19258;DHT22;9763;48.780;9.212;2022-07-29T19:47:54;25.00;71.90
19258;DHT22;9763;48.780;9.212;2022-07-29T19:51:23;25.10;73.00
19258;DHT22;9763;48.780;9.212;2022-07-29T19:54:46;25.00;72.10
19258;DHT22;9763;48.780;9.212;2022-07-29T19:58:11;24.90;71.80
19258;DHT22;9763;48.780;9.212;2022-07-29T20:01:36;24.90;71.70
19258;DHT22;9763;48.780;9.212;2022-07-29T20:11:48;24.80;71.90
19258;DHT22;9763;48.780;9.212;2022-07-29T20:15:14;24.70;71.50
19258;DHT22;9763;48.780;9.212;2022-07-29T20:45:53;24.30;71.60
19258;DHT22;9763;48.780;9.212;2022-07-29T20:49:18;24.30;72.10
19258;DHT22;9763;48.780;9.212;2022-07-29T20:56:06;24.30;72.20
19258;DHT22;9763;48.780;9.212;2022-07-29T20:59:29;24.30;71.60
19258;DHT22;9763;48.780;9.212;2022-07-29T21:02:54;24.20;71.30
19258;DHT22;9763;48.780;9.212;2022-07-29T21:06:19;24.10;71.50
19258;DHT22;9763;48.780;9.212;2022-07-29T21:09:43;24.10;72.30
19258;DHT22;9763;48.780;9.212;2022-07-29T21:16:31;24.00;71.70
19258;DHT22;9763;48.780;9.212;2022-07-29T21:23:22;23.90;72.20
19258;DHT22;9763;48.780;9.212;2022-07-29T21:26:46;23.70;72.20
19258;DHT22;9763;48.780;9.212;2022-07-29T21:30:29;24.20;73.70
19258;DHT22;9763;48.780;9.212;2022-07-29T21:40:43;23.50;72.50
19258;DHT22;9763;48.780;9.212;2022-07-29T21:50:55;23.40;72.60
19258;DHT22;9763;48.780;9.212;2022-07-29T22:08:00;23.20;72.50
19258;DHT22;9763;48.780;9.212;2022-07-29T22:11:24;23.20;72.00
19258;DHT22;9763;48.780;9.212;2022-07-29T22:14:49;23.10;72.00
19258;DHT22;9763;48.780;9.212;2022-07-29T22:21:42;23.10;72.40
19258;DHT22;9763;48.780;9.212;2022-07-29T22:25:07;23.00;72.60
19258;DHT22;9763;48.780;9.212;2022-07-29T22:31:56;23.00;72.60
19258;DHT22;9763;48.780;9.212;2022-07-29T22:35:20;23.00;72.40
19258;DHT22;9763;48.780;9.212;2022-07-29T22:38:44;22.90;72.30
19258;DHT22;9763;48.780;9.212;2022-07-29T22:42:12;22.90;72.30
19258;DHT22;9763;48.780;9.212;2022-07-29T22:49:02;22.80;72.20
19258;DHT22;9763;48.780;9.212;2022-07-29T22:55:50;22.70;72.10
19258;DHT22;9763;48.780;9.212;2022-07-29T22:59:14;22.70;72.20
19258;DHT22;9763;48.780;9.212;2022-07-29T23:02:37;22.70;72.00
19258;DHT22;9763;48.780;9.212;2022-07-29T23:06:03;22.70;72.90
19258;DHT22;9763;48.780;9.212;2022-07-29T23:09:27;22.60;71.90
19258;DHT22;9763;48.780;9.212;2022-07-29T23:16:15;22.60;71.70
19258;DHT22;9763;48.780;9.212;2022-07-29T23:23:13;22.50;71.80
19258;DHT22;9763;48.780;9.212;2022-07-29T23:26:36;22.50;71.90
19258;DHT22;9763;48.780;9.212;2022-07-29T23:36:48;22.40;71.90
19258;DHT22;9763;48.780;9.212;2022-07-29T23:40:14;22.40;72.00
19258;DHT22;9763;48.780;9.212;2022-07-29T23:47:01;22.30;72.00
19258;DHT22;9763;48.780;9.212;2022-07-29T23:50:25;22.30;71.90
19258;DHT22;9763;48.780;9.212;2022-07-29T23:57:16;22.30;71.50
